Current | Forecast
Updated: 12:00 AM CEST on October 17, 2017
Observed at Carcassonne, France
Temperature 18°C
Humidity 83%
Dew Point 15°C
Wind East at 24 km/h
Pressure 1025 hPa (Steady)
Conditions Overcast
Visibility 10.0 kilometers
UV 0 out of 16
Clouds Overcast (OVC) : 365 m
Yesterday's Maximum 23°C
Yesterday's Minimum 18°C approx.
Yesterday's Cooling Degree Days 4 approx.
Sunrise8:09 AM CEST
Sunset7:07 PM CEST
Moon Rise5:25 AM CEST
Moon Set6:21 PM CEST
Moon PhaseMoon Phase
Waning Crescent
Raw METARMETAR LFMK 162200Z AUTO 10013KT 9999 OVC012 18/15 Q1025


Monday
. High: 64° F.
Tuesday
. High: 66° F.
Wednesday
. High: 55° F.
Thursday
. High: 55° F.
Friday
. High: 62° F.
Saturday
. High: 60° F.
Sunday
. High: 59° F.
Monday
. High: 68° F.

Units: English | Metric

Find the Weather for any City, State or Zipcode, or Country:

U.S. State List | Severe Weather | Tropical Storms | Ski Conditions
United States | Canada | Central America | South America | Asia | Europe | Australia | Africa | Islands

Weather Underground

© Copyright 2017
The Weather Company, LLC